Time;durP1;ratioP1;P1;durP2;ratioP2;P2;SDS_P1;SDS_P2;PMS_P1;PMS_P2;Temp;Humidity;BMP_temperature;BMP_pressure;BME280_temperature;BME280_humidity;BME280_pressure;Samples;Min_cycle;Max_cycle;Signal;HPM_P1;HPM_P2
2021/06/18 00:01:22;;;;;;;0.73;0.65;;;23.60;53.30;;;;;;6289004;28;20031;-68
2021/06/18 00:04:23;;;;;;;2.45;0.93;;;23.60;53.30;;;;;;6263666;28;20603;-68
2021/06/18 00:07:23;;;;;;;0.88;0.73;;;23.60;53.30;;;;;;6268361;28;20035;-68
2021/06/18 00:10:25;;;;;;;0.80;0.73;;;23.60;53.30;;;;;;6288785;28;20032;-68
2021/06/18 00:13:26;;;;;;;1.17;0.70;;;23.60;53.30;;;;;;6288109;28;20131;-68
2021/06/18 00:16:27;;;;;;;0.65;0.65;;;23.60;53.30;;;;;;6278333;28;20027;-68
2021/06/18 00:19:27;;;;;;;0.73;0.70;;;23.60;53.30;;;;;;6284274;28;20032;-68
2021/06/18 00:22:28;;;;;;;0.68;0.60;;;23.60;53.40;;;;;;6288464;28;20378;-68
2021/06/18 00:25:28;;;;;;;0.90;0.80;;;23.60;53.30;;;;;;6288237;28;20032;-68
2021/06/18 00:28:29;;;;;;;0.70;0.70;;;23.60;53.30;;;;;;6288801;28;20048;-68
2021/06/18 00:31:29;;;;;;;1.08;0.85;;;23.60;53.30;;;;;;6286908;28;20275;-68
2021/06/18 00:34:30;;;;;;;0.90;0.70;;;23.60;53.30;;;;;;6288124;28;20030;-68
2021/06/18 00:37:30;;;;;;;0.70;0.70;;;23.60;53.30;;;;;;6286368;28;20036;-68
2021/06/18 00:40:32;;;;;;;0.68;0.68;;;23.60;53.30;;;;;;6288579;28;20221;-68
2021/06/18 00:43:32;;;;;;;0.98;0.80;;;23.60;53.30;;;;;;6288104;28;20035;-69
2021/06/18 00:46:33;;;;;;;0.50;0.50;;;23.60;53.40;;;;;;6288583;28;20502;-68
2021/06/18 00:49:33;;;;;;;0.93;0.80;;;23.60;53.40;;;;;;6288456;28;20027;-68
2021/06/18 00:52:34;;;;;;;1.20;0.85;;;23.60;53.30;;;;;;6281220;28;20429;-68
2021/06/18 00:55:35;;;;;;;0.75;0.70;;;23.60;53.40;;;;;;6287963;28;20025;-68
2021/06/18 00:58:36;;;;;;;0.80;0.70;;;23.60;53.40;;;;;;6288446;28;20023;-68
2021/06/18 01:01:36;;;;;;;0.60;0.60;;;23.60;53.40;;;;;;6288188;28;20017;-68
2021/06/18 01:04:37;;;;;;;0.90;0.80;;;23.60;53.40;;;;;;6272258;28;20118;-68
2021/06/18 01:08:06;;;;;;;0.85;0.70;;;23.60;53.40;;;;;;6263498;28;20060;-68
2021/06/18 01:11:29;;;;;;;0.68;0.57;;;23.60;53.40;;;;;;6287259;28;20552;-68
2021/06/18 01:14:40;;;;;;;0.80;0.70;;;23.60;53.40;;;;;;6287925;28;20705;-69
2021/06/18 01:17:55;;;;;;;0.90;0.80;;;23.60;54.10;;;;;;6288747;28;20028;-69
2021/06/18 01:21:02;;;;;;;0.52;0.50;;;23.60;53.40;;;;;;6287175;28;20085;-68
2021/06/18 01:24:28;;;;;;;0.88;0.60;;;23.60;53.40;;;;;;6287859;28;20487;-67
2021/06/18 01:27:31;;;;;;;1.38;0.82;;;23.60;53.40;;;;;;6288192;28;20025;-68
2021/06/18 01:30:34;;;;;;;0.90;0.60;;;23.60;53.40;;;;;;6288340;28;20490;-68
2021/06/18 01:33:36;;;;;;;1.00;0.60;;;23.60;53.40;;;;;;6288302;28;20029;-68
2021/06/18 01:36:38;;;;;;;0.80;0.60;;;23.60;53.40;;;;;;6288004;28;20498;-68
2021/06/18 01:39:40;;;;;;;1.10;0.82;;;23.60;53.40;;;;;;6288191;28;20020;-68
2021/06/18 01:42:43;;;;;;;0.77;0.70;;;23.60;53.40;;;;;;6288366;28;20433;-68
2021/06/18 01:45:46;;;;;;;1.15;0.63;;;23.60;53.40;;;;;;6287720;28;20063;-68
2021/06/18 01:48:52;;;;;;;1.17;0.80;;;23.60;53.40;;;;;;6290753;28;20442;-68
2021/06/18 01:51:55;;;;;;;1.10;0.77;;;23.60;53.80;;;;;;6292143;28;20071;-68
2021/06/18 01:54:56;;;;;;;0.70;0.70;;;23.60;53.40;;;;;;6261566;28;20027;-68
2021/06/18 01:58:00;;;;;;;1.08;0.95;;;23.60;53.40;;;;;;6291655;28;20029;-68
2021/06/18 02:01:01;;;;;;;1.02;0.80;;;23.60;53.40;;;;;;6292494;28;20055;-68
2021/06/18 02:04:06;;;;;;;0.93;0.80;;;23.60;53.40;;;;;;6280772;28;20061;-68
2021/06/18 02:07:07;;;;;;;0.60;0.60;;;23.70;53.50;;;;;;6292177;28;20050;-68
2021/06/18 02:10:10;;;;;;;1.08;0.90;;;23.60;53.40;;;;;;6291984;28;20021;-68
2021/06/18 02:13:12;;;;;;;0.75;0.60;;;23.60;53.40;;;;;;6291822;28;20314;-68
2021/06/18 02:16:16;;;;;;;1.02;0.60;;;23.60;53.40;;;;;;6291496;28;20037;-68
2021/06/18 02:19:19;;;;;;;0.90;0.70;;;23.60;53.40;;;;;;6292537;28;20032;-68
2021/06/18 02:22:21;;;;;;;0.88;0.70;;;23.60;53.40;;;;;;6291611;28;20421;-68
2021/06/18 02:25:22;;;;;;;0.60;0.60;;;23.60;53.40;;;;;;6292004;28;20025;-68
2021/06/18 02:28:25;;;;;;;1.95;0.77;;;23.60;53.50;;;;;;6291701;28;20115;-68
2021/06/18 02:31:28;;;;;;;0.80;0.70;;;23.60;53.40;;;;;;6291471;28;20036;-68
2021/06/18 02:34:29;;;;;;;0.77;0.70;;;23.60;53.40;;;;;;6291609;28;20021;-68
2021/06/18 02:37:29;;;;;;;0.90;0.80;;;23.60;53.40;;;;;;6291763;28;20484;-68
2021/06/18 02:40:30;;;;;;;0.90;0.80;;;23.60;53.40;;;;;;6291636;28;20042;-69
2021/06/18 02:43:30;;;;;;;0.90;0.80;;;23.60;53.40;;;;;;6289285;28;20475;-68
2021/06/18 02:47:09;;;;;;;0.68;0.68;;;23.60;53.40;;;;;;6291054;28;20107;-68
2021/06/18 02:50:36;;;;;;;0.90;0.80;;;23.60;53.40;;;;;;6290524;28;20032;-68
2021/06/18 02:53:48;;;;;;;0.65;0.65;;;23.60;53.40;;;;;;6266015;28;20456;-67
2021/06/18 02:56:57;;;;;;;1.05;0.70;;;23.60;53.40;;;;;;6270812;28;20490;-68
2021/06/18 03:00:00;;;;;;;0.80;0.80;;;23.60;53.50;;;;;;6288124;28;20416;-68
2021/06/18 03:03:03;;;;;;;0.55;0.55;;;23.60;53.50;;;;;;6286191;28;20021;-68
2021/06/18 03:06:05;;;;;;;0.73;0.70;;;23.60;53.40;;;;;;6265097;28;20766;-68
2021/06/18 03:09:09;;;;;;;0.80;0.80;;;23.60;53.50;;;;;;6265809;28;20029;-68
2021/06/18 03:12:11;;;;;;;1.02;0.93;;;23.60;53.50;;;;;;6276512;28;20025;-69
2021/06/18 03:15:12;;;;;;;0.65;0.65;;;23.60;53.50;;;;;;6290181;28;20052;-68
2021/06/18 03:18:17;;;;;;;1.20;1.10;;;23.60;53.50;;;;;;6290744;28;20025;-68
2021/06/18 03:21:17;;;;;;;0.98;0.80;;;23.60;53.50;;;;;;6276207;28;20053;-68
2021/06/18 03:24:19;;;;;;;0.90;0.75;;;23.60;53.50;;;;;;6288504;28;20047;-68
2021/06/18 03:27:21;;;;;;;0.95;0.90;;;23.60;53.50;;;;;;6289550;28;20024;-68
2021/06/18 03:30:22;;;;;;;0.93;0.80;;;23.60;53.50;;;;;;6290520;28;20028;-68
2021/06/18 03:33:25;;;;;;;1.20;0.80;;;23.60;53.50;;;;;;6289393;28;20041;-68
2021/06/18 03:36:26;;;;;;;1.77;0.90;;;23.60;53.50;;;;;;6289817;28;20067;-68
2021/06/18 03:39:28;;;;;;;0.70;0.70;;;23.60;53.50;;;;;;6289285;28;20191;-68
2021/06/18 03:42:29;;;;;;;0.70;0.50;;;23.60;53.50;;;;;;6289564;28;20036;-68
2021/06/18 03:45:30;;;;;;;0.98;0.70;;;23.60;53.50;;;;;;6289485;28;20032;-68
2021/06/18 03:48:32;;;;;;;0.70;0.70;;;23.60;53.50;;;;;;6289504;28;20025;-68
2021/06/18 03:51:35;;;;;;;1.55;1.05;;;23.60;53.50;;;;;;6288847;28;20115;-68
2021/06/18 03:54:37;;;;;;;1.05;0.95;;;23.60;53.50;;;;;;6248932;28;20029;-68
2021/06/18 03:57:40;;;;;;;1.00;0.80;;;23.60;53.50;;;;;;6266709;28;20032;-68
2021/06/18 04:00:43;;;;;;;0.75;0.52;;;23.60;53.50;;;;;;6288744;28;20457;-68
2021/06/18 04:03:49;;;;;;;1.27;0.88;;;23.60;53.50;;;;;;6279954;28;20033;-68
2021/06/18 04:06:51;;;;;;;0.80;0.80;;;23.60;53.50;;;;;;6264636;28;20392;-68
2021/06/18 04:09:52;;;;;;;0.93;0.70;;;23.60;53.50;;;;;;6288720;28;20103;-68
2021/06/18 04:12:53;;;;;;;0.82;0.70;;;23.70;53.60;;;;;;6288645;28;20038;-68
2021/06/18 04:15:54;;;;;;;0.85;0.70;;;23.60;53.50;;;;;;6289088;28;20052;-68
2021/06/18 04:18:55;;;;;;;0.73;0.70;;;23.60;53.50;;;;;;6288774;28;20077;-68
2021/06/18 04:21:58;;;;;;;0.82;0.77;;;23.70;53.60;;;;;;6288930;28;20499;-68
2021/06/18 04:24:59;;;;;;;1.00;0.80;;;23.60;53.50;;;;;;6288642;28;20449;-68
2021/06/18 04:27:59;;;;;;;0.80;0.80;;;23.70;53.60;;;;;;6288999;28;20111;-68
2021/06/18 04:31:00;;;;;;;0.73;0.70;;;23.70;53.60;;;;;;6289010;28;20320;-68
2021/06/18 04:34:00;;;;;;;0.95;0.82;;;23.70;53.60;;;;;;6288454;28;20047;-68
2021/06/18 04:37:01;;;;;;;0.95;0.90;;;23.60;53.50;;;;;;6288592;28;20119;-68
2021/06/18 04:40:04;;;;;;;1.10;0.85;;;23.60;53.50;;;;;;6288347;28;20024;-68
2021/06/18 04:43:05;;;;;;;0.80;0.80;;;23.60;53.50;;;;;;6288258;28;20029;-68
2021/06/18 04:46:06;;;;;;;0.82;0.82;;;23.60;53.50;;;;;;6288326;28;20036;-68
2021/06/18 04:49:07;;;;;;;0.63;0.63;;;23.70;53.60;;;;;;6288247;28;20371;-68
2021/06/18 04:52:07;;;;;;;0.85;0.80;;;23.70;53.60;;;;;;6287811;28;20040;-68
2021/06/18 04:55:12;;;;;;;0.65;0.65;;;23.60;53.50;;;;;;6249550;28;20415;-68
2021/06/18 04:58:13;;;;;;;0.85;0.80;;;23.60;53.60;;;;;;6264452;28;20029;-68
2021/06/18 05:01:14;;;;;;;2.60;1.90;;;23.70;53.60;;;;;;6256827;28;20037;-68
2021/06/18 05:04:14;;;;;;;3.80;1.73;;;23.70;53.70;;;;;;6252003;28;20080;-67
2021/06/18 05:07:15;;;;;;;2.35;1.80;;;23.70;53.80;;;;;;6261257;28;20082;-68
2021/06/18 05:10:15;;;;;;;2.40;2.15;;;23.70;53.80;;;;;;6267037;28;20031;-68
2021/06/18 05:13:16;;;;;;;4.45;2.28;;;23.70;53.90;;;;;;6261017;28;20083;-68
2021/06/18 05:16:16;;;;;;;6.63;2.28;;;23.70;53.90;;;;;;6267365;28;20028;-68
2021/06/18 05:19:17;;;;;;;5.40;2.38;;;23.70;53.90;;;;;;6268259;28;20095;-68
2021/06/18 05:22:17;;;;;;;2.50;1.65;;;23.70;53.90;;;;;;6262357;28;20112;-68
2021/06/18 05:25:18;;;;;;;1.88;1.58;;;23.70;53.80;;;;;;6281279;28;20487;-68
2021/06/18 05:28:18;;;;;;;1.75;1.65;;;23.70;53.80;;;;;;6267236;28;20021;-68
2021/06/18 05:31:19;;;;;;;1.48;1.38;;;23.70;53.80;;;;;;6274504;28;20021;-68
2021/06/18 05:34:19;;;;;;;2.40;1.75;;;23.70;53.80;;;;;;6277560;28;20343;-68
2021/06/18 05:37:20;;;;;;;1.63;1.40;;;23.70;53.80;;;;;;6291032;28;20025;-68
2021/06/18 05:40:21;;;;;;;2.28;1.50;;;23.70;53.80;;;;;;6290237;28;20017;-68
2021/06/18 05:43:21;;;;;;;3.70;1.55;;;23.70;53.70;;;;;;6265503;28;20021;-69
2021/06/18 05:46:22;;;;;;;1.40;1.27;;;23.70;53.80;;;;;;6286428;28;20046;-68
2021/06/18 05:49:23;;;;;;;2.22;1.50;;;23.70;53.80;;;;;;6273630;28;20041;-68
2021/06/18 05:52:23;;;;;;;2.28;1.50;;;23.70;53.80;;;;;;6286252;28;20028;-68
2021/06/18 05:55:24;;;;;;;2.17;1.52;;;23.70;53.70;;;;;;6263601;28;20024;-68
2021/06/18 05:58:25;;;;;;;2.35;1.48;;;23.70;53.70;;;;;;6290569;28;20693;-68
2021/06/18 06:01:26;;;;;;;2.38;1.50;;;23.70;53.70;;;;;;6266373;28;20025;-68
2021/06/18 06:04:26;;;;;;;2.70;1.33;;;23.70;53.70;;;;;;6268123;28;20028;-68
2021/06/18 06:07:27;;;;;;;1.90;1.60;;;23.70;53.70;;;;;;6268022;28;20369;-68
2021/06/18 06:10:27;;;;;;;6.65;1.60;;;23.70;53.70;;;;;;6275100;28;20032;-68
2021/06/18 06:13:28;;;;;;;1.58;1.25;;;23.70;53.70;;;;;;6292226;28;20048;-68
2021/06/18 06:16:33;;;;;;;2.67;1.55;;;23.70;53.70;;;;;;6292153;28;20478;-68
2021/06/18 06:19:33;;;;;;;2.42;1.65;;;23.70;53.70;;;;;;6266504;28;20037;-68
2021/06/18 06:22:34;;;;;;;1.95;1.45;;;23.70;53.70;;;;;;6292108;28;20442;-68
2021/06/18 06:25:35;;;;;;;1.65;1.20;;;23.70;53.70;;;;;;6293715;28;20039;-68
2021/06/18 06:28:36;;;;;;;1.60;1.33;;;23.80;53.60;;;;;;6294781;28;20383;-68
2021/06/18 06:31:38;;;;;;;2.08;1.40;;;23.80;54.30;;;;;;6290243;28;20037;-68
2021/06/18 06:34:39;;;;;;;1.48;1.17;;;23.80;53.60;;;;;;6269589;28;20421;-68
2021/06/18 06:37:42;;;;;;;1.75;1.45;;;23.80;53.60;;;;;;6290691;28;20104;-68
2021/06/18 06:40:42;;;;;;;1.40;1.30;;;23.80;53.60;;;;;;6292755;28;20484;-68
2021/06/18 06:43:43;;;;;;;2.20;1.70;;;23.90;53.70;;;;;;6287921;28;20082;-68
2021/06/18 06:46:43;;;;;;;1.25;1.10;;;23.90;53.80;;;;;;6287605;28;20152;-68
2021/06/18 06:49:44;;;;;;;2.22;1.30;;;23.90;53.70;;;;;;6271487;28;20492;-68
2021/06/18 06:52:45;;;;;;;1.30;1.20;;;23.90;53.80;;;;;;6272733;28;20428;-68
2021/06/18 06:55:46;;;;;;;2.50;1.55;;;23.90;53.80;;;;;;6275253;28;20475;-68
2021/06/18 06:58:47;;;;;;;1.40;1.17;;;23.90;53.80;;;;;;6277111;28;20028;-68
2021/06/18 07:01:48;;;;;;;1.40;1.30;;;23.80;53.70;;;;;;6275321;28;20033;-68
2021/06/18 07:04:48;;;;;;;1.90;1.20;;;23.80;53.70;;;;;;6271225;28;20024;-68
2021/06/18 07:07:49;;;;;;;1.17;1.00;;;23.80;53.70;;;;;;6286129;28;20476;-68
2021/06/18 07:10:50;;;;;;;1.55;1.15;;;23.80;53.70;;;;;;6284973;28;20047;-68
2021/06/18 07:13:51;;;;;;;1.73;1.25;;;23.90;53.80;;;;;;6283531;28;20111;-68
2021/06/18 07:16:51;;;;;;;1.58;1.30;;;23.90;53.70;;;;;;6273441;28;20032;-68
2021/06/18 07:19:54;;;;;;;8.35;1.77;;;23.90;53.70;;;;;;6292290;28;20037;-69
2021/06/18 07:22:54;;;;;;;5.40;1.40;;;24.00;53.90;;;;;;6285992;28;20114;-69
2021/06/18 07:25:55;;;;;;;1.98;1.10;;;24.00;52.60;;;;;;6292886;28;20479;-69
2021/06/18 07:28:55;;;;;;;3.45;1.40;;;24.00;51.20;;;;;;6291659;28;20028;-69
2021/06/18 07:31:57;;;;;;;3.40;1.20;;;24.10;50.50;;;;;;6292139;28;20024;-69
2021/06/18 07:34:57;;;;;;;1.48;1.30;;;24.10;50.00;;;;;;6250823;28;20111;-69
2021/06/18 07:37:58;;;;;;;3.33;1.17;;;24.20;49.70;;;;;;6265846;28;20020;-69
2021/06/18 07:40:59;;;;;;;3.28;1.60;;;24.20;49.20;;;;;;6277247;28;20025;-69
2021/06/18 07:43:59;;;;;;;3.75;1.50;;;24.20;49.10;;;;;;6285139;28;20024;-69
2021/06/18 07:47:00;;;;;;;1.65;1.20;;;24.30;49.10;;;;;;6255961;28;20109;-69
2021/06/18 07:50:00;;;;;;;2.17;1.50;;;24.30;48.80;;;;;;6291855;28;20027;-69
2021/06/18 07:53:01;;;;;;;2.33;1.40;;;24.30;48.60;;;;;;6290478;28;20391;-69
2021/06/18 07:56:01;;;;;;;1.98;1.45;;;24.30;48.30;;;;;;6291918;28;20059;-69
2021/06/18 07:59:02;;;;;;;2.67;1.60;;;24.30;48.30;;;;;;6291214;28;20418;-69
2021/06/18 08:02:02;;;;;;;2.45;1.50;;;24.40;48.20;;;;;;6291977;28;20062;-69
2021/06/18 08:05:04;;;;;;;2.20;1.65;;;24.40;48.20;;;;;;6291113;28;20016;-69
2021/06/18 08:08:05;;;;;;;2.47;1.67;;;24.40;48.00;;;;;;6291103;28;20589;-69
2021/06/18 08:11:06;;;;;;;5.47;1.70;;;24.40;47.80;;;;;;6281697;28;20104;-69
2021/06/18 08:14:06;;;;;;;2.38;1.77;;;24.40;48.50;;;;;;6281948;28;20052;-69
2021/06/18 08:17:07;;;;;;;4.13;2.03;;;24.40;47.70;;;;;;6291763;28;20028;-69
2021/06/18 08:20:09;;;;;;;3.78;2.30;;;24.40;47.70;;;;;;6290830;28;20106;-69
2021/06/18 08:23:10;;;;;;;4.05;2.10;;;24.50;47.60;;;;;;6290191;28;20158;-68
2021/06/18 08:26:10;;;;;;;6.18;2.25;;;24.50;47.50;;;;;;6291334;28;20067;-68
2021/06/18 08:29:11;;;;;;;2.85;1.98;;;24.40;47.40;;;;;;6289089;28;20032;-69
2021/06/18 08:32:12;;;;;;;3.08;2.10;;;24.50;47.40;;;;;;6290982;28;20395;-69
2021/06/18 08:35:12;;;;;;;2.58;2.00;;;24.50;47.40;;;;;;6290230;28;20017;-69
2021/06/18 08:38:13;;;;;;;2.67;1.83;;;24.50;47.30;;;;;;6281380;28;20485;-69
2021/06/18 08:41:13;;;;;;;4.55;2.10;;;24.50;47.20;;;;;;6264563;28;20480;-69
2021/06/18 08:44:17;;;;;;;3.33;2.30;;;24.50;47.20;;;;;;6276874;28;20480;-69
2021/06/18 08:47:17;;;;;;;3.80;2.28;;;24.50;47.10;;;;;;6287835;28;20032;-69
2021/06/18 08:50:23;;;;;;;3.95;2.50;;;24.50;47.10;;;;;;6288646;28;20029;-69
2021/06/18 08:53:25;;;;;;;3.83;2.40;;;24.50;47.10;;;;;;6278105;28;20032;-69
2021/06/18 08:56:25;;;;;;;3.60;2.63;;;24.50;47.00;;;;;;6281986;28;20067;-69
2021/06/18 08:59:26;;;;;;;3.80;2.75;;;24.50;47.00;;;;;;6273683;28;20021;-69
2021/06/18 09:02:26;;;;;;;4.43;2.80;;;24.50;47.00;;;;;;6270191;28;20424;-69
2021/06/18 09:05:29;;;;;;;4.10;2.63;;;24.60;47.00;;;;;;6290514;28;20033;-69
2021/06/18 09:08:29;;;;;;;5.53;3.00;;;24.60;47.10;;;;;;6294142;28;20431;-70
2021/06/18 09:11:44;;;;;;;4.53;3.20;;;24.60;47.10;;;;;;6292486;28;20033;-69
2021/06/18 09:14:44;;;;;;;4.67;3.00;;;24.60;47.10;;;;;;6295428;28;20056;-69
2021/06/18 09:17:45;;;;;;;5.45;3.70;;;24.60;47.10;;;;;;6295622;28;20025;-69
2021/06/18 09:20:46;;;;;;;4.72;3.45;;;24.60;47.00;;;;;;6294818;28;20029;-69
2021/06/18 09:23:52;;;;;;;4.07;3.00;;;24.60;47.10;;;;;;6294746;28;20032;-69
2021/06/18 09:26:53;;;;;;;5.38;2.85;;;24.60;47.00;;;;;;6295732;28;20017;-70
2021/06/18 09:29:53;;;;;;;5.43;3.53;;;24.60;47.00;;;;;;6289043;28;20028;-69
2021/06/18 09:33:07;;;;;;;5.90;3.20;;;24.60;47.00;;;;;;6274074;28;20028;-69
2021/06/18 09:36:09;;;;;;;5.28;3.10;;;24.60;47.00;;;;;;6291144;28;20499;-69
2021/06/18 09:39:16;;;;;;;4.95;2.95;;;24.60;47.00;;;;;;6262446;28;20020;-69
2021/06/18 09:42:16;;;;;;;4.40;2.97;;;24.60;46.90;;;;;;6292740;28;20112;-68
2021/06/18 09:45:28;;;;;;;5.78;3.35;;;24.60;47.00;;;;;;6283120;28;20487;-69
2021/06/18 09:48:34;;;;;;;4.47;3.08;;;24.60;46.90;;;;;;6281720;28;20032;-68
2021/06/18 09:51:55;;;;;;;4.57;2.90;;;24.70;47.00;;;;;;6284991;28;20573;-69
2021/06/18 09:54:56;;;;;;;4.57;2.78;;;24.70;46.90;;;;;;6268133;28;20095;-68
2021/06/18 09:57:56;;;;;;;4.38;2.80;;;24.70;46.90;;;;;;6272771;28;20035;-69
2021/06/18 10:01:15;;;;;;;5.40;3.13;;;24.70;46.80;;;;;;6272495;28;20329;-68
2021/06/18 10:04:16;;;;;;;4.93;2.78;;;24.70;46.70;;;;;;6268519;28;20495;-69
2021/06/18 10:07:17;;;;;;;4.18;2.58;;;24.70;46.70;;;;;;6268843;28;20035;-68
2021/06/18 10:10:17;;;;;;;3.75;2.80;;;24.70;46.70;;;;;;6278523;28;20087;-69
2021/06/18 10:13:18;;;;;;;3.60;2.92;;;24.70;46.60;;;;;;6294328;28;20399;-69
2021/06/18 10:16:20;;;;;;;4.55;2.75;;;24.70;46.50;;;;;;6284720;28;20027;-69
2021/06/18 10:19:21;;;;;;;3.53;2.42;;;24.70;46.50;;;;;;6269763;28;20429;-69
2021/06/18 10:22:23;;;;;;;4.28;2.42;;;24.70;46.50;;;;;;6274837;28;20029;-69
2021/06/18 10:25:44;;;;;;;4.10;2.97;;;24.70;46.50;;;;;;6277795;28;20025;-69
2021/06/18 10:28:53;;;;;;;3.13;2.22;;;24.70;46.40;;;;;;6294182;28;20035;-69
2021/06/18 10:31:54;;;;;;;8.52;3.17;;;24.70;46.40;;;;;;6286116;28;20025;-69
2021/06/18 10:34:56;;;;;;;3.75;2.53;;;24.70;46.40;;;;;;6271762;28;20032;-69
2021/06/18 10:37:57;;;;;;;3.97;2.63;;;24.70;46.40;;;;;;6268333;28;20029;-69
2021/06/18 10:41:03;;;;;;;4.63;2.50;;;24.70;46.30;;;;;;6277596;28;20017;-69
2021/06/18 10:44:04;;;;;;;4.07;2.55;;;24.70;46.20;;;;;;6265421;28;20032;-69
2021/06/18 10:47:05;;;;;;;7.28;2.70;;;24.70;46.30;;;;;;6281605;28;20025;-68
2021/06/18 10:50:06;;;;;;;3.63;2.55;;;24.70;46.20;;;;;;6270062;28;20025;-68
2021/06/18 10:53:20;;;;;;;3.20;2.47;;;24.70;46.20;;;;;;6268062;28;20029;-69
2021/06/18 10:56:21;;;;;;;3.30;2.20;;;24.70;46.10;;;;;;6278093;28;20017;-68
2021/06/18 10:59:34;;;;;;;5.40;2.08;;;24.70;46.10;;;;;;6287804;28;20033;-69
2021/06/18 11:02:39;;;;;;;4.85;2.40;;;24.70;46.00;;;;;;6281052;28;20029;-69
2021/06/18 11:05:40;;;;;;;2.28;1.90;;;24.70;46.00;;;;;;6262157;28;20029;-68
2021/06/18 11:08:47;;;;;;;3.40;2.33;;;24.70;46.00;;;;;;6263150;28;20035;-68
2021/06/18 11:11:47;;;;;;;2.97;2.10;;;24.80;45.90;;;;;;6276099;28;20024;-69
2021/06/18 11:14:53;;;;;;;3.28;2.03;;;24.80;46.00;;;;;;6291077;28;20056;-68
2021/06/18 11:17:59;;;;;;;3.10;1.95;;;24.80;46.00;;;;;;6275080;28;20025;-69
2021/06/18 11:21:01;;;;;;;3.70;1.83;;;24.70;45.90;;;;;;6278488;28;20394;-70
2021/06/18 11:24:01;;;;;;;2.75;1.80;;;24.70;45.90;;;;;;6274120;28;20032;-68
2021/06/18 11:27:28;;;;;;;5.43;2.08;;;24.80;46.00;;;;;;6279139;28;20099;-68
2021/06/18 11:30:30;;;;;;;3.78;2.38;;;24.70;45.90;;;;;;6242234;28;20032;-68
2021/06/18 11:33:45;;;;;;;2.55;1.80;;;24.80;46.00;;;;;;6268380;28;20091;-69
2021/06/18 11:36:46;;;;;;;2.47;1.92;;;24.80;46.00;;;;;;6276059;28;20098;-68
2021/06/18 11:39:46;;;;;;;4.43;1.70;;;24.80;46.80;;;;;;6270458;28;20060;-69
2021/06/18 11:42:47;;;;;;;2.72;1.98;;;24.70;46.00;;;;;;6283929;28;20379;-68
2021/06/18 11:45:47;;;;;;;2.30;1.63;;;24.80;46.00;;;;;;6273437;28;20033;-69
2021/06/18 11:48:49;;;;;;;6.75;2.13;;;24.70;46.00;;;;;;6274648;28;20115;-68
2021/06/18 11:52:00;;;;;;;3.63;2.03;;;24.80;46.00;;;;;;6267613;28;20067;-68
2021/06/18 11:55:00;;;;;;;3.33;2.30;;;24.80;45.90;;;;;;6255496;28;20021;-69
2021/06/18 11:58:01;;;;;;;5.38;1.98;;;24.80;45.80;;;;;;6278572;28;20502;-69
2021/06/18 12:01:15;;;;;;;2.30;2.05;;;24.80;45.70;;;;;;6267281;28;20507;-68
2021/06/18 12:04:16;;;;;;;2.53;2.13;;;24.80;45.60;;;;;;6271586;28;20033;-68
2021/06/18 12:07:29;;;;;;;4.70;1.98;;;24.80;45.60;;;;;;6277631;28;20100;-68
2021/06/18 12:10:30;;;;;;;2.63;1.90;;;24.80;45.60;;;;;;6287159;28;20021;-69
2021/06/18 12:13:31;;;;;;;3.35;2.03;;;24.80;45.70;;;;;;6289745;28;20059;-69
2021/06/18 12:16:34;;;;;;;5.25;2.38;;;24.80;45.60;;;;;;6290314;28;20053;-68
2021/06/18 12:19:42;;;;;;;3.78;2.10;;;24.80;45.70;;;;;;6262697;28;20023;-69
2021/06/18 12:22:43;;;;;;;3.55;2.25;;;24.80;45.70;;;;;;6263676;28;20055;-69
2021/06/18 12:25:44;;;;;;;3.70;2.13;;;24.80;45.60;;;;;;6267683;28;20021;-69
2021/06/18 12:28:45;;;;;;;4.88;2.30;;;24.80;45.60;;;;;;6286323;28;20084;-69
2021/06/18 12:31:46;;;;;;;5.03;2.75;;;24.80;45.70;;;;;;6288439;28;20032;-68
2021/06/18 12:35:05;;;;;;;3.50;2.20;;;24.80;45.70;;;;;;6274094;28;20041;-68
2021/06/18 12:38:07;;;;;;;3.58;2.13;;;24.80;45.80;;;;;;6280373;28;20039;-69
2021/06/18 12:41:07;;;;;;;3.67;2.13;;;24.80;45.80;;;;;;6266070;28;20057;-69
2021/06/18 12:44:09;;;;;;;3.70;2.10;;;24.80;45.90;;;;;;6272981;28;20502;-68
2021/06/18 12:47:11;;;;;;;5.05;2.22;;;24.80;45.80;;;;;;6264747;28;20033;-69
2021/06/18 12:50:22;;;;;;;3.65;2.05;;;24.80;45.90;;;;;;6270301;28;20387;-69
2021/06/18 12:53:31;;;;;;;2.85;1.83;;;24.80;45.80;;;;;;6268380;28;20503;-68
2021/06/18 12:56:40;;;;;;;4.43;2.22;;;24.80;45.80;;;;;;6241101;28;20033;-69
2021/06/18 12:59:40;;;;;;;3.38;2.10;;;24.80;45.90;;;;;;6263840;28;20287;-68
2021/06/18 13:02:41;;;;;;;4.82;2.30;;;24.80;45.90;;;;;;6262497;28;20415;-68
2021/06/18 13:05:53;;;;;;;6.10;2.33;;;24.80;45.90;;;;;;6261763;28;20104;-68
2021/06/18 13:08:58;;;;;;;3.35;2.00;;;24.80;45.90;;;;;;6279940;28;20099;-68
2021/06/18 13:11:59;;;;;;;4.07;2.30;;;24.80;45.90;;;;;;6282242;28;20540;-68
2021/06/18 13:15:00;;;;;;;6.82;2.33;;;24.80;45.90;;;;;;6282995;28;20056;-68
2021/06/18 13:18:02;;;;;;;8.75;2.28;;;24.80;46.00;;;;;;6272361;28;20028;-69
2021/06/18 13:21:04;;;;;;;3.15;2.10;;;24.80;45.90;;;;;;6276546;28;20485;-68
2021/06/18 13:24:14;;;;;;;3.05;1.77;;;24.80;46.10;;;;;;6267101;28;20024;-68
2021/06/18 13:27:16;;;;;;;4.75;2.08;;;24.80;46.00;;;;;;6245717;28;20779;-68
2021/06/18 13:30:17;;;;;;;5.65;2.00;;;24.80;46.00;;;;;;6262678;28;20100;-68
2021/06/18 13:33:18;;;;;;;4.90;2.28;;;24.80;45.90;;;;;;6272760;28;20037;-69
2021/06/18 13:36:45;;;;;;;3.92;1.83;;;24.80;45.80;;;;;;6272682;28;20051;-68
2021/06/18 13:40:13;;;;;;;6.47;2.28;;;24.80;45.70;;;;;;6281340;28;20039;-68
2021/06/18 13:43:13;;;;;;;3.70;1.90;;;24.80;45.60;;;;;;6253454;28;20038;-69
2021/06/18 13:46:16;;;;;;;3.08;2.00;;;24.80;45.60;;;;;;6282333;28;20017;-69
2021/06/18 13:49:17;;;;;;;3.13;2.03;;;24.80;45.50;;;;;;6281986;28;20097;-69
2021/06/18 13:52:17;;;;;;;3.75;1.75;;;24.80;45.50;;;;;;6274514;28;20484;-69
2021/06/18 13:55:18;;;;;;;3.55;2.17;;;24.80;45.40;;;;;;6288161;28;20518;-69
2021/06/18 13:58:19;;;;;;;2.53;1.85;;;24.80;45.40;;;;;;6268985;28;20434;-69
2021/06/18 14:01:20;;;;;;;4.00;1.80;;;24.80;45.40;;;;;;6264961;28;20021;-68
2021/06/18 14:04:20;;;;;;;3.53;1.60;;;24.80;45.30;;;;;;6270978;28;20017;-68
2021/06/18 14:07:21;;;;;;;2.15;1.70;;;24.80;45.30;;;;;;6293667;28;20020;-69
2021/06/18 14:10:21;;;;;;;3.53;2.05;;;24.80;45.20;;;;;;6293106;28;20498;-68
2021/06/18 14:13:22;;;;;;;3.90;1.67;;;24.80;45.20;;;;;;6271566;28;20119;-69
2021/06/18 14:16:23;;;;;;;3.15;1.77;;;24.80;45.20;;;;;;6284732;28;20082;-68
2021/06/18 14:19:23;;;;;;;3.47;1.80;;;24.80;45.20;;;;;;6281139;28;20021;-68
2021/06/18 14:22:24;;;;;;;2.75;1.90;;;24.80;45.20;;;;;;6261284;28;20027;-69
2021/06/18 14:25:28;;;;;;;2.92;1.98;;;24.80;45.00;;;;;;6268142;28;20056;-68
2021/06/18 14:28:28;;;;;;;2.60;2.03;;;24.80;44.90;;;;;;6269422;28;20510;-68
2021/06/18 14:31:30;;;;;;;2.35;1.73;;;24.90;45.00;;;;;;6277400;28;20025;-68
2021/06/18 14:34:31;;;;;;;2.85;1.73;;;24.80;44.80;;;;;;6267885;28;20104;-68
2021/06/18 14:37:31;;;;;;;2.35;1.70;;;24.80;44.80;;;;;;6284822;28;20029;-68
2021/06/18 14:40:32;;;;;;;2.42;1.75;;;24.80;44.80;;;;;;6292412;28;20025;-67
2021/06/18 14:43:32;;;;;;;2.70;1.85;;;24.80;44.70;;;;;;6292257;28;20031;-68
2021/06/18 14:46:33;;;;;;;2.67;1.83;;;24.80;44.60;;;;;;6287853;28;20054;-68
2021/06/18 14:49:34;;;;;;;3.28;1.85;;;24.80;44.70;;;;;;6280246;28;20058;-68
2021/06/18 14:52:35;;;;;;;3.40;1.80;;;24.80;45.40;;;;;;6278595;28;20033;-67
2021/06/18 14:55:35;;;;;;;1.80;1.45;;;24.80;44.50;;;;;;6286012;28;20048;-69
2021/06/18 14:58:36;;;;;;;2.25;1.92;;;24.80;44.50;;;;;;6292069;28;20425;-68
2021/06/18 15:01:36;;;;;;;2.50;1.83;;;24.80;44.50;;;;;;6282387;28;20224;-68
2021/06/18 15:04:37;;;;;;;2.80;2.10;;;24.80;44.50;;;;;;6257469;28;20028;-69
2021/06/18 15:07:38;;;;;;;1.75;1.63;;;24.80;44.50;;;;;;6267525;28;20412;-69
2021/06/18 15:10:39;;;;;;;2.05;1.67;;;24.80;44.40;;;;;;6284835;28;20036;-68
2021/06/18 15:13:40;;;;;;;2.00;1.45;;;24.80;44.40;;;;;;6272656;28;20545;-69
2021/06/18 15:16:40;;;;;;;2.10;1.52;;;24.80;44.30;;;;;;6290730;28;20060;-68
2021/06/18 15:19:41;;;;;;;3.13;2.08;;;24.80;44.30;;;;;;6275536;28;20544;-68
2021/06/18 15:22:42;;;;;;;2.17;1.67;;;24.80;44.30;;;;;;6291788;28;20470;-68
2021/06/18 15:25:43;;;;;;;2.03;1.50;;;24.80;44.30;;;;;;6288965;28;20056;-68
2021/06/18 15:28:45;;;;;;;2.42;1.95;;;24.80;44.30;;;;;;6257625;28;20061;-69
2021/06/18 15:31:45;;;;;;;1.63;1.35;;;24.80;44.20;;;;;;6291583;28;20063;-68
2021/06/18 15:34:46;;;;;;;2.10;1.80;;;24.80;44.20;;;;;;6266335;28;20017;-68
2021/06/18 15:37:46;;;;;;;2.45;1.70;;;24.80;44.20;;;;;;6280920;28;20025;-68
2021/06/18 15:40:47;;;;;;;2.08;1.63;;;24.80;44.10;;;;;;6289894;28;20052;-68
2021/06/18 15:43:48;;;;;;;2.10;1.60;;;24.80;44.10;;;;;;6290467;28;20113;-68
2021/06/18 15:46:48;;;;;;;1.90;1.55;;;24.80;44.10;;;;;;6290540;28;20104;-68
2021/06/18 15:49:49;;;;;;;2.25;1.52;;;24.80;44.10;;;;;;6285905;28;20040;-68
2021/06/18 15:52:50;;;;;;;5.28;1.45;;;24.80;44.00;;;;;;6268842;28;20080;-68